RKD weather

Knox County Regional Airport
Rockland, Maine, United States

Public forecast

Using degrees Fahrenheit for public forecast. Weather courtesy of forecast.io.

Current aviation weather report (METAR) for Knox County Regional Airport

Retrieved 2019/10/14 18:56 UTC (14 minutes ago):

KRKD 141856Z AUTO 15009KT 10SM OVC005 13/12 A2997 RMK AO2 SLP147 T01330122

Aviation forecast (TAF) for Knox County Regional Airport

Retrieved 2019/10/14 18:22 UTC (48 minutes ago):

TAF KRKD 141720Z 1418/1518 15008KT P6SM OVC007 FM142200 15004KT P6SM OVC003 FM142300 VRB03KT 1/2SM FG OVC003 FM150900 34003KT 5SM BR BKN003 FM151100 31004KT P6SM SKC AMD LTD TO CLD VIS AND WIND